createdAt,value
2019-03-30T00:00:41.413Z,14.20
2019-03-30T00:03:09.861Z,13.67
2019-03-30T00:05:38.772Z,13.43
2019-03-30T00:08:07.317Z,13.93
2019-03-30T00:10:35.843Z,13.33
2019-03-30T00:13:04.403Z,13.93
2019-03-30T00:15:33.008Z,13.50
2019-03-30T00:18:01.558Z,13.97
2019-03-30T00:20:30.148Z,14.37
2019-03-30T00:22:58.613Z,13.73
2019-03-30T00:25:27.059Z,13.63
2019-03-30T00:27:55.581Z,13.27
2019-03-30T00:30:24.043Z,13.80
2019-03-30T00:32:52.502Z,13.43
2019-03-30T00:35:20.995Z,13.90
2019-03-30T00:37:49.530Z,14.37
2019-03-30T00:40:18.018Z,14.40
2019-03-30T00:42:46.567Z,13.73
2019-03-30T00:45:15.099Z,14.00
2019-03-30T00:47:43.558Z,13.53
2019-03-30T00:50:12.266Z,14.30
2019-03-30T00:52:40.728Z,14.17
2019-03-30T00:55:09.365Z,14.10
2019-03-30T00:57:40.712Z,13.73
2019-03-30T01:00:09.885Z,14.57
2019-03-30T01:02:38.410Z,13.73
2019-03-30T01:05:07.454Z,13.47
2019-03-30T01:07:35.958Z,13.70
2019-03-30T01:10:06.078Z,13.57
2019-03-30T01:12:34.773Z,13.87
2019-03-30T01:15:05.049Z,13.43
2019-03-30T01:17:33.517Z,14.70
2019-03-30T01:20:03.423Z,14.50
2019-03-30T01:22:51.737Z,13.53
2019-03-30T01:25:20.348Z,14.23
2019-03-30T01:27:48.802Z,14.13
2019-03-30T01:30:23.468Z,13.67
2019-03-30T01:32:47.605Z,14.67
2019-03-30T01:35:16.192Z,14.43
2019-03-30T01:37:44.889Z,14.47
2019-03-30T01:40:13.516Z,14.83
2019-03-30T01:42:42.038Z,15.00
2019-03-30T01:45:10.735Z,14.77
2019-03-30T01:47:58.890Z,15.83
2019-03-30T01:50:27.383Z,15.43
2019-03-30T01:52:55.883Z,14.93
2019-03-30T01:55:24.353Z,15.83
2019-03-30T01:57:52.804Z,15.23
2019-03-30T02:00:21.265Z,16.77
2019-03-30T02:02:49.768Z,16.50
2019-03-30T02:05:18.223Z,15.90
2019-03-30T02:07:46.724Z,16.40
2019-03-30T02:10:18.383Z,16.40
2019-03-30T02:12:46.839Z,15.63
2019-03-30T02:15:15.437Z,16.40
2019-03-30T02:17:43.936Z,16.73
2019-03-30T02:20:39.398Z,16.80
2019-03-30T02:23:08.715Z,17.47
2019-03-30T02:25:37.336Z,17.33
2019-03-30T02:28:07.206Z,17.03
2019-03-30T02:30:36.342Z,18.07
2019-03-30T02:33:05.034Z,18.37
2019-03-30T02:35:33.492Z,18.17
2019-03-30T02:38:01.984Z,18.40
2019-03-30T02:40:30.680Z,18.13
2019-03-30T02:43:18.518Z,18.13
2019-03-30T02:45:46.980Z,19.33
2019-03-30T02:48:15.507Z,18.87
2019-03-30T02:50:50.174Z,18.20
2019-03-30T02:53:14.224Z,19.30
2019-03-30T02:55:42.823Z,19.17
2019-03-30T02:58:11.315Z,18.43
2019-03-30T03:00:39.854Z,19.73
2019-03-30T03:03:08.465Z,19.77
2019-03-30T03:05:37.132Z,19.93
2019-03-30T03:08:07.253Z,19.90
2019-03-30T03:10:35.885Z,21.47
2019-03-30T03:13:04.444Z,20.17
2019-03-30T03:15:32.926Z,21.43
2019-03-30T03:18:01.441Z,21.87
2019-03-30T03:20:29.956Z,21.60
2019-03-30T03:22:58.526Z,21.80
2019-03-30T03:25:27.061Z,23.33
2019-03-30T03:27:55.723Z,23.17
2019-03-30T03:30:24.260Z,22.93
2019-03-30T03:32:52.788Z,23.10
2019-03-30T03:35:21.471Z,22.50
2019-03-30T03:37:49.923Z,24.07
2019-03-30T03:40:18.460Z,22.97
2019-03-30T03:42:47.311Z,22.90
2019-03-30T03:45:15.853Z,24.37
2019-03-30T03:47:44.389Z,23.67
2019-03-30T03:50:21.484Z,24.93
2019-03-30T03:52:50.281Z,25.10
2019-03-30T03:55:18.900Z,24.20
2019-03-30T03:57:47.831Z,24.07
2019-03-30T04:00:16.375Z,24.37
2019-03-30T04:02:45.571Z,24.03
2019-03-30T04:05:14.150Z,24.60
2019-03-30T04:07:43.288Z,23.97
2019-03-30T04:10:12.159Z,23.60
2019-03-30T04:12:43.529Z,24.50
2019-03-30T04:15:33.014Z,25.83
2019-03-30T04:18:22.431Z,24.77
2019-03-30T04:20:50.939Z,24.23
2019-03-30T04:23:19.464Z,24.83
2019-03-30T04:25:48.185Z,24.77
2019-03-30T04:28:16.769Z,24.33
2019-03-30T04:30:45.345Z,24.13
2019-03-30T04:33:13.880Z,26.30
2019-03-30T04:35:42.482Z,25.23
2019-03-30T04:38:14.289Z,25.00
2019-03-30T04:40:41.203Z,25.50
2019-03-30T04:43:09.745Z,25.87
2019-03-30T04:45:38.198Z,25.20
2019-03-30T04:48:07.063Z,26.00
2019-03-30T04:50:35.597Z,25.93
2019-03-30T04:53:04.128Z,25.90
2019-03-30T04:55:32.698Z,26.70
2019-03-30T04:58:01.229Z,25.73
2019-03-30T05:00:29.672Z,27.00
2019-03-30T05:02:58.268Z,27.03
2019-03-30T05:05:26.736Z,25.47
2019-03-30T05:07:55.255Z,26.03
2019-03-30T05:10:23.772Z,25.73
2019-03-30T05:12:52.229Z,25.93
2019-03-30T05:15:20.696Z,25.27
2019-03-30T05:17:49.246Z,26.77
2019-03-30T05:20:17.710Z,25.00
2019-03-30T05:22:46.211Z,25.93
2019-03-30T05:25:14.793Z,26.07
2019-03-30T05:27:43.326Z,25.50
2019-03-30T05:30:31.227Z,26.10
2019-03-30T05:33:05.965Z,24.90
2019-03-30T05:35:29.872Z,27.10
2019-03-30T05:38:01.332Z,26.00
2019-03-30T05:40:28.676Z,24.83
2019-03-30T05:42:57.212Z,26.00
2019-03-30T05:45:25.795Z,25.60
2019-03-30T05:47:54.341Z,25.10
2019-03-30T05:50:22.827Z,24.53
2019-03-30T05:52:51.327Z,24.40
2019-03-30T05:55:19.801Z,25.33
2019-03-30T05:57:48.325Z,24.80
2019-03-30T06:00:19.246Z,23.60
2019-03-30T06:02:47.756Z,23.60
2019-03-30T06:05:16.247Z,23.07
2019-03-30T06:07:44.776Z,22.70
2019-03-30T06:10:13.364Z,23.37
2019-03-30T06:12:41.823Z,22.77
2019-03-30T06:15:29.675Z,23.97
2019-03-30T06:17:58.179Z,22.00
2019-03-30T06:20:26.647Z,23.27
2019-03-30T06:22:55.145Z,22.03
2019-03-30T06:25:23.769Z,22.13
2019-03-30T06:27:52.396Z,22.00
2019-03-30T06:30:26.584Z,21.10
2019-03-30T06:32:55.121Z,22.50
2019-03-30T06:35:23.635Z,22.73
2019-03-30T06:37:52.355Z,22.27
2019-03-30T06:40:20.904Z,21.60
2019-03-30T06:42:49.460Z,21.93
2019-03-30T06:45:18.115Z,21.13
2019-03-30T06:47:46.563Z,21.17
2019-03-30T06:50:15.464Z,21.63
2019-03-30T06:52:56.680Z,21.37
2019-03-30T06:55:14.323Z,20.73
2019-03-30T06:57:42.844Z,20.97
2019-03-30T07:00:12.284Z,20.20
2019-03-30T07:02:41.796Z,20.37
2019-03-30T07:05:10.398Z,20.57
2019-03-30T07:07:39.783Z,20.13
2019-03-30T07:10:09.935Z,19.63
2019-03-30T07:12:40.311Z,19.43
2019-03-30T07:15:10.852Z,18.77
2019-03-30T07:17:47.116Z,18.93
2019-03-30T07:20:29.380Z,19.07
2019-03-30T07:23:11.351Z,18.37
2019-03-30T07:25:28.628Z,19.00
2019-03-30T07:27:57.488Z,18.27
2019-03-30T07:30:26.088Z,17.50
2019-03-30T07:32:54.556Z,17.93
2019-03-30T07:35:23.141Z,18.63
2019-03-30T07:37:51.682Z,19.13
2019-03-30T07:40:20.199Z,18.53
2019-03-30T07:42:48.701Z,18.80
2019-03-30T07:45:17.510Z,18.63
2019-03-30T07:47:45.977Z,18.50
2019-03-30T07:50:15.013Z,18.50
2019-03-30T07:52:43.553Z,17.70
2019-03-30T07:55:12.293Z,16.97
2019-03-30T07:57:40.859Z,17.17
2019-03-30T08:00:30.839Z,16.80
2019-03-30T08:02:58.965Z,17.23
2019-03-30T08:05:27.561Z,16.97
2019-03-30T08:07:56.102Z,17.43
2019-03-30T08:10:24.680Z,17.07
2019-03-30T08:12:53.223Z,16.83
2019-03-30T08:15:21.664Z,17.80
2019-03-30T08:17:50.147Z,16.43
2019-03-30T08:20:18.683Z,16.63
2019-03-30T08:22:47.143Z,17.80
2019-03-30T08:25:15.795Z,17.50
2019-03-30T08:27:44.733Z,17.23
2019-03-30T08:30:13.591Z,15.90
2019-03-30T08:32:42.105Z,16.83
2019-03-30T08:35:10.796Z,17.67
2019-03-30T08:37:39.353Z,17.70
2019-03-30T08:40:09.003Z,18.13
2019-03-30T08:42:37.467Z,17.13
2019-03-30T08:45:07.579Z,17.47
2019-03-30T08:47:36.134Z,16.77
2019-03-30T08:50:08.872Z,18.37
2019-03-30T08:52:37.392Z,17.30
2019-03-30T08:55:08.424Z,18.30
2019-03-30T08:57:36.880Z,17.63
2019-03-30T09:00:06.285Z,18.10
2019-03-30T09:02:34.951Z,16.83
2019-03-30T09:05:03.949Z,17.77
2019-03-30T09:07:32.413Z,16.90
2019-03-30T09:10:01.001Z,16.23
2019-03-30T09:12:29.559Z,16.60
2019-03-30T09:14:58.012Z,17.30
2019-03-30T09:17:26.515Z,17.97
2019-03-30T09:19:54.977Z,17.97
2019-03-30T09:22:23.442Z,16.83
2019-03-30T09:24:52.011Z,17.57
2019-03-30T09:27:20.459Z,16.97
2019-03-30T09:29:48.923Z,17.00
2019-03-30T09:32:17.445Z,16.60
2019-03-30T09:34:45.972Z,18.00
2019-03-30T09:37:14.637Z,17.60
2019-03-30T09:39:43.205Z,17.67
2019-03-30T09:42:11.651Z,17.33
2019-03-30T09:44:40.120Z,17.10
2019-03-30T09:47:08.772Z,17.70
2019-03-30T09:49:37.314Z,16.60
2019-03-30T09:52:05.864Z,16.63
2019-03-30T09:54:34.432Z,18.20
2019-03-30T09:57:02.918Z,16.53
2019-03-30T09:59:31.460Z,16.83
2019-03-30T10:02:00.036Z,16.37
2019-03-30T10:04:28.498Z,16.70
2019-03-30T10:06:57.050Z,16.00
2019-03-30T10:09:25.560Z,16.20
2019-03-30T10:11:54.021Z,15.23
2019-03-30T10:14:22.500Z,15.23
2019-03-30T10:16:51.042Z,14.00
2019-03-30T10:19:19.502Z,14.20
2019-03-30T10:21:47.970Z,13.80
2019-03-30T10:24:16.547Z,11.83
2019-03-30T10:26:45.024Z,11.33
2019-03-30T10:29:13.493Z,10.57
2019-03-30T10:31:42.026Z,10.67
2019-03-30T10:34:11.098Z,9.67
2019-03-30T10:36:39.636Z,10.37
2019-03-30T10:39:08.686Z,8.57
2019-03-30T10:41:37.215Z,8.80
2019-03-30T10:44:05.678Z,8.33
2019-03-30T10:46:34.301Z,8.10
2019-03-30T10:49:02.745Z,8.17
2019-03-30T10:51:31.212Z,8.47
2019-03-30T10:53:59.802Z,8.00
2019-03-30T10:56:31.238Z,7.97
2019-03-30T10:58:59.776Z,7.70
2019-03-30T11:01:28.361Z,7.97
2019-03-30T11:03:56.830Z,8.57
2019-03-30T11:06:25.374Z,9.03
2019-03-30T11:08:53.884Z,8.97
2019-03-30T11:11:22.550Z,8.80
2019-03-30T11:13:51.125Z,9.67
2019-03-30T11:16:19.715Z,7.87
2019-03-30T11:19:07.653Z,8.10
2019-03-30T11:21:36.270Z,7.90
2019-03-30T11:24:06.627Z,8.50
2019-03-30T11:26:35.044Z,8.43
2019-03-30T11:29:03.609Z,8.53
2019-03-30T11:31:32.062Z,8.30
2019-03-30T11:34:00.518Z,9.23
2019-03-30T11:36:29.216Z,8.23
2019-03-30T11:38:57.758Z,7.83
2019-03-30T11:41:26.329Z,8.20
2019-03-30T11:43:54.896Z,7.57
2019-03-30T11:46:23.514Z,7.53
2019-03-30T11:48:52.123Z,8.50
2019-03-30T11:51:20.626Z,7.27
2019-03-30T11:53:49.088Z,7.70
2019-03-30T11:56:17.551Z,6.60
2019-03-30T11:58:46.119Z,7.23
2019-03-30T12:01:14.600Z,7.93
2019-03-30T12:03:43.136Z,7.87
2019-03-30T12:06:12.223Z,7.70
2019-03-30T12:08:40.695Z,8.20
2019-03-30T12:11:09.232Z,7.90
2019-03-30T12:13:37.815Z,8.00
2019-03-30T12:16:06.360Z,7.80
2019-03-30T12:18:34.892Z,8.27
2019-03-30T12:21:03.397Z,9.47
2019-03-30T12:23:31.973Z,9.37
2019-03-30T12:26:00.445Z,11.00
2019-03-30T12:28:29.095Z,10.70
2019-03-30T12:30:57.563Z,11.67
2019-03-30T12:33:26.027Z,11.27
2019-03-30T12:35:54.547Z,12.50
2019-03-30T12:38:23.090Z,13.30
2019-03-30T12:40:51.910Z,14.53
2019-03-30T12:43:20.424Z,16.33
2019-03-30T12:45:48.953Z,16.37
2019-03-30T12:48:17.443Z,16.67
2019-03-30T12:50:47.472Z,16.23
2019-03-30T12:53:15.963Z,17.90
2019-03-30T12:55:49.518Z,19.30
2019-03-30T12:58:14.864Z,21.47
2019-03-30T13:00:43.346Z,21.83
2019-03-30T13:03:11.884Z,23.37
2019-03-30T13:05:40.389Z,23.77
2019-03-30T13:08:08.850Z,23.63
2019-03-30T13:10:37.393Z,24.07
2019-03-30T13:13:06.196Z,23.53
2019-03-30T13:15:34.763Z,23.03
2019-03-30T13:18:03.374Z,22.70
2019-03-30T13:20:32.010Z,23.07
2019-03-30T13:23:00.576Z,22.77
2019-03-30T13:25:29.053Z,22.87
2019-03-30T13:27:57.789Z,22.77
2019-03-30T13:30:26.410Z,23.00
2019-03-30T13:32:54.988Z,24.07
2019-03-30T13:35:23.847Z,23.10
2019-03-30T13:37:52.534Z,22.73
2019-03-30T13:40:21.107Z,23.03
2019-03-30T13:42:49.693Z,23.23
2019-03-30T13:45:18.297Z,23.83
2019-03-30T13:47:46.776Z,23.50
2019-03-30T13:50:15.526Z,22.83
2019-03-30T13:52:44.113Z,23.37
2019-03-30T13:55:12.911Z,22.53
2019-03-30T13:57:41.440Z,22.03
2019-03-30T14:00:11.494Z,22.20
2019-03-30T14:02:40.229Z,22.40
2019-03-30T14:05:09.212Z,22.63
2019-03-30T14:07:37.713Z,26.23
2019-03-30T14:10:09.787Z,23.83
2019-03-30T14:12:38.593Z,23.47
2019-03-30T14:15:09.332Z,24.57
2019-03-30T14:17:37.783Z,25.83
2019-03-30T14:20:07.787Z,24.20
2019-03-30T14:22:37.242Z,26.23
2019-03-30T14:25:06.791Z,26.40
2019-03-30T14:27:35.478Z,27.93
2019-03-30T14:30:05.388Z,26.97
2019-03-30T14:32:33.926Z,27.67
2019-03-30T14:35:21.829Z,28.47
2019-03-30T14:37:50.387Z,30.10
2019-03-30T14:40:19.066Z,28.53
2019-03-30T14:42:47.682Z,31.17
2019-03-30T14:45:16.647Z,30.83
2019-03-30T14:47:45.704Z,30.90
2019-03-30T14:50:14.832Z,32.13
2019-03-30T14:52:43.373Z,31.73
2019-03-30T14:55:12.008Z,31.50
2019-03-30T14:57:40.544Z,30.60
2019-03-30T15:00:12.300Z,32.27
2019-03-30T15:02:40.832Z,31.80
2019-03-30T15:05:09.837Z,33.87
2019-03-30T15:07:38.483Z,34.73
2019-03-30T15:10:09.558Z,34.30
2019-03-30T15:12:38.632Z,34.33
2019-03-30T15:15:11.399Z,36.63
2019-03-30T15:17:40.930Z,35.63
2019-03-30T15:20:11.990Z,37.08
2019-03-30T15:22:40.804Z,38.20
2019-03-30T15:25:10.421Z,38.23
2019-03-30T15:27:39.096Z,38.28
2019-03-30T15:30:08.480Z,39.00
2019-03-30T15:32:37.095Z,37.93
2019-03-30T15:35:07.121Z,38.63
2019-03-30T15:37:35.734Z,38.75
2019-03-30T15:40:05.681Z,37.55
2019-03-30T15:42:34.346Z,37.78
2019-03-30T15:45:03.202Z,38.55
2019-03-30T15:47:33.256Z,38.95
2019-03-30T15:50:02.130Z,37.55
2019-03-30T15:52:30.725Z,38.17
2019-03-30T15:54:59.212Z,38.45
2019-03-30T15:57:27.725Z,38.25
2019-03-30T15:59:56.264Z,37.95
2019-03-30T16:02:24.821Z,37.15
2019-03-30T16:04:53.322Z,37.23
2019-03-30T16:07:21.857Z,37.65
2019-03-30T16:09:50.392Z,39.63
2019-03-30T16:12:18.906Z,38.73
2019-03-30T16:14:47.422Z,40.70
2019-03-30T16:17:16.211Z,38.50
2019-03-30T16:19:44.808Z,38.73
2019-03-30T16:22:16.513Z,38.00
2019-03-30T16:24:45.150Z,39.20
2019-03-30T16:27:27.801Z,40.37
2019-03-30T16:29:44.052Z,39.13
2019-03-30T16:32:14.209Z,40.03
2019-03-30T16:34:42.983Z,38.83
2019-03-30T16:37:11.532Z,41.10
2019-03-30T16:39:40.154Z,39.90
2019-03-30T16:42:08.787Z,40.27
2019-03-30T16:44:37.245Z,42.57
2019-03-30T16:47:05.720Z,40.50
2019-03-30T16:49:34.228Z,40.80
2019-03-30T16:52:02.720Z,39.50
2019-03-30T16:54:31.182Z,39.63
2019-03-30T16:56:59.770Z,43.03
2019-03-30T16:59:28.262Z,40.00
2019-03-30T17:01:56.881Z,41.20
2019-03-30T17:04:25.501Z,39.70
2019-03-30T17:06:54.025Z,42.20
2019-03-30T17:09:22.492Z,41.97
2019-03-30T17:11:51.017Z,41.30
2019-03-30T17:14:19.566Z,39.47
2019-03-30T17:16:48.056Z,41.00
2019-03-30T17:19:16.762Z,39.80
2019-03-30T17:21:45.235Z,40.63
2019-03-30T17:24:14.430Z,40.17
2019-03-30T17:26:43.033Z,40.37
2019-03-30T17:29:11.492Z,41.60
2019-03-30T17:31:40.050Z,40.53
2019-03-30T17:34:08.704Z,42.30
2019-03-30T17:36:37.270Z,41.50
2019-03-30T17:39:08.697Z,41.17
2019-03-30T17:41:37.226Z,42.63
2019-03-30T17:44:05.769Z,41.90
2019-03-30T17:46:34.328Z,42.10
2019-03-30T17:49:02.924Z,43.40
2019-03-30T17:51:31.452Z,41.27
2019-03-30T17:53:59.925Z,41.77
2019-03-30T17:56:28.425Z,41.20
2019-03-30T17:58:56.882Z,41.93
2019-03-30T18:01:25.344Z,40.77
2019-03-30T18:03:53.935Z,42.80
2019-03-30T18:06:22.483Z,41.83
2019-03-30T18:08:50.952Z,42.77
2019-03-30T18:11:19.466Z,40.80
2019-03-30T18:13:48.080Z,42.23
2019-03-30T18:16:16.632Z,42.47
2019-03-30T18:18:45.471Z,43.17
2019-03-30T18:21:13.965Z,43.57
2019-03-30T18:23:42.502Z,42.07
2019-03-30T18:26:11.329Z,41.23
2019-03-30T18:28:39.798Z,43.13
2019-03-30T18:31:08.327Z,41.80
2019-03-30T18:33:37.370Z,41.97
2019-03-30T18:36:05.851Z,42.60
2019-03-30T18:38:36.747Z,44.50
2019-03-30T18:41:05.643Z,43.07
2019-03-30T18:43:34.243Z,43.33
2019-03-30T18:46:02.796Z,42.87
2019-03-30T18:48:31.378Z,43.70
2019-03-30T18:51:00.680Z,44.10
2019-03-30T18:53:29.891Z,43.70
2019-03-30T18:55:58.464Z,44.47
2019-03-30T18:58:40.705Z,43.70
2019-03-30T19:00:57.118Z,44.00
2019-03-30T19:03:44.953Z,43.83
2019-03-30T19:06:13.956Z,43.23
2019-03-30T19:08:42.417Z,43.73
2019-03-30T19:11:10.942Z,43.73
2019-03-30T19:13:39.395Z,44.50
2019-03-30T19:16:07.871Z,43.30
2019-03-30T19:18:36.468Z,43.40
2019-03-30T19:21:05.078Z,43.37
2019-03-30T19:23:33.553Z,42.73
2019-03-30T19:26:02.062Z,42.97
2019-03-30T19:28:30.515Z,39.70
2019-03-30T19:30:58.976Z,35.80
2019-03-30T19:33:27.499Z,35.43
2019-03-30T19:35:56.026Z,35.47
2019-03-30T19:38:24.524Z,36.60
2019-03-30T19:40:53.084Z,33.47
2019-03-30T19:43:21.555Z,34.43
2019-03-30T19:45:50.109Z,33.23
2019-03-30T19:48:18.599Z,32.53
2019-03-30T19:50:47.136Z,31.00
2019-03-30T19:53:16.576Z,30.73
2019-03-30T19:55:45.144Z,31.63
2019-03-30T19:58:14.255Z,30.60
2019-03-30T20:00:42.874Z,28.37
2019-03-30T20:03:11.396Z,28.40
2019-03-30T20:05:40.119Z,28.80
2019-03-30T20:08:12.280Z,28.93
2019-03-30T20:10:38.954Z,26.87
2019-03-30T20:13:09.216Z,26.60
2019-03-30T20:15:37.740Z,25.93
2019-03-30T20:18:06.314Z,25.50
2019-03-30T20:20:34.781Z,24.47
2019-03-30T20:23:03.324Z,24.30
2019-03-30T20:25:32.053Z,22.07
2019-03-30T20:28:00.576Z,21.60
2019-03-30T20:30:29.043Z,21.93
2019-03-30T20:32:57.570Z,22.10
2019-03-30T20:35:26.049Z,20.33
2019-03-30T20:37:54.524Z,20.43
2019-03-30T20:40:23.892Z,20.10
2019-03-30T20:42:52.359Z,20.87
2019-03-30T20:45:20.981Z,21.73
2019-03-30T20:47:49.567Z,21.80
2019-03-30T20:50:18.185Z,21.10
2019-03-30T20:52:46.760Z,22.80
2019-03-30T20:55:15.441Z,21.70
2019-03-30T20:57:43.897Z,21.27
2019-03-30T21:00:13.636Z,21.03
2019-03-30T21:02:42.216Z,21.67
2019-03-30T21:05:11.315Z,22.43
2019-03-30T21:07:41.749Z,21.63
2019-03-30T21:10:10.757Z,20.90
2019-03-30T21:12:39.288Z,20.93
2019-03-30T21:15:08.857Z,21.27
2019-03-30T21:17:37.468Z,20.70
2019-03-30T21:20:06.448Z,21.20
2019-03-30T21:22:34.911Z,21.40
2019-03-30T21:25:04.068Z,21.80
2019-03-30T21:27:32.544Z,19.87
2019-03-30T21:30:01.019Z,20.63
2019-03-30T21:32:29.678Z,20.43
2019-03-30T21:34:58.209Z,21.03
2019-03-30T21:37:26.750Z,20.07
2019-03-30T21:39:55.289Z,20.47
2019-03-30T21:42:23.826Z,18.90
2019-03-30T21:44:52.276Z,18.93
2019-03-30T21:47:20.811Z,18.53
2019-03-30T21:49:49.514Z,17.00
2019-03-30T21:52:18.042Z,17.37
2019-03-30T21:54:46.579Z,16.43
2019-03-30T21:57:15.092Z,18.10
2019-03-30T21:59:43.581Z,17.57
2019-03-30T22:02:12.187Z,16.07
2019-03-30T22:04:40.781Z,15.97
2019-03-30T22:07:09.299Z,16.53
2019-03-30T22:09:38.567Z,17.20
2019-03-30T22:12:07.095Z,16.43
2019-03-30T22:14:35.549Z,15.90
2019-03-30T22:17:04.213Z,15.87
2019-03-30T22:19:32.683Z,15.33
2019-03-30T22:22:01.225Z,15.27
2019-03-30T22:24:29.803Z,14.87
2019-03-30T22:26:58.336Z,14.13
2019-03-30T22:29:26.795Z,11.70
2019-03-30T22:31:55.302Z,12.80
2019-03-30T22:34:23.768Z,11.13
2019-03-30T22:36:52.313Z,11.53
2019-03-30T22:39:20.828Z,10.73
2019-03-30T22:41:49.435Z,10.17
2019-03-30T22:44:17.894Z,10.00
2019-03-30T22:46:46.387Z,9.37
2019-03-30T22:49:14.859Z,9.30
2019-03-30T22:51:43.303Z,8.43
2019-03-30T22:54:12.170Z,8.40
2019-03-30T22:56:40.656Z,8.37
2019-03-30T22:59:09.145Z,7.80
2019-03-30T23:01:37.992Z,8.30
2019-03-30T23:04:06.445Z,8.23
2019-03-30T23:06:34.903Z,7.77
2019-03-30T23:09:05.207Z,8.53
2019-03-30T23:11:33.661Z,7.87
2019-03-30T23:14:02.114Z,7.67
2019-03-30T23:16:30.632Z,8.27
2019-03-30T23:18:59.083Z,8.33
2019-03-30T23:21:27.550Z,7.10
2019-03-30T23:23:56.237Z,7.50
2019-03-30T23:26:24.687Z,6.70
2019-03-30T23:28:53.215Z,7.60
2019-03-30T23:31:22.163Z,7.50
2019-03-30T23:33:50.667Z,6.80
2019-03-30T23:36:19.133Z,7.23
2019-03-30T23:38:47.706Z,7.07
2019-03-30T23:41:16.183Z,7.10
2019-03-30T23:43:44.717Z,7.13
2019-03-30T23:46:13.220Z,6.13
2019-03-30T23:48:41.764Z,5.90
2019-03-30T23:51:10.273Z,5.83
2019-03-30T23:53:38.789Z,4.97
2019-03-30T23:56:16.179Z,5.03
2019-03-30T23:58:44.691Z,5.27
